Map

Track Data

SID SEASON NUMBER BASIN SUBBASIN NAME ISO_TIME NATURE LAT LON WMO_WIND WMO_PRES WMO_AGENCY TRACK_TYPE DIST2LAND LANDFALL IFLAG USA_AGENCY USA_ATCF_ID USA_LAT USA_LON USA_RECORD USA_STATUS USA_WIND USA_PRES USA_SSHS USA_R34_NE USA_R34_SE USA_R34_SW USA_R34_NW USA_R50_NE USA_R50_SE USA_R50_SW USA_R50_NW USA_R64_NE USA_R64_SE USA_R64_SW USA_R64_NW USA_POCI USA_ROCI USA_RMW USA_EYE TOKYO_LAT TOKYO_LON TOKYO_GRADE TOKYO_WIND TOKYO_PRES TOKYO_R50_DIR TOKYO_R50_LONG TOKYO_R50_SHORT TOKYO_R30_DIR TOKYO_R30_LONG TOKYO_R30_SHORT TOKYO_LAND CMA_LAT CMA_LON CMA_CAT CMA_WIND CMA_PRES HKO_LAT HKO_LON HKO_CAT HKO_WIND HKO_PRES NEWDELHI_LAT NEWDELHI_LON NEWDELHI_GRADE NEWDELHI_WIND NEWDELHI_PRES NEWDELHI_CI NEWDELHI_DP NEWDELHI_POCI REUNION_LAT REUNION_LON REUNION_TYPE REUNION_WIND REUNION_PRES REUNION_TNUM REUNION_CI REUNION_RMW REUNION_R34_NE REUNION_R34_SE REUNION_R34_SW REUNION_R34_NW REUNION_R50_NE REUNION_R50_SE REUNION_R50_SW REUNION_R50_NW REUNION_R64_NE REUNION_R64_SE REUNION_R64_SW REUNION_R64_NW BOM_LAT BOM_LON BOM_TYPE BOM_WIND BOM_PRES BOM_TNUM BOM_CI BOM_RMW BOM_R34_NE BOM_R34_SE BOM_R34_SW BOM_R34_NW BOM_R50_NE BOM_R50_SE BOM_R50_SW BOM_R50_NW BOM_R64_NE BOM_R64_SE BOM_R64_SW BOM_R64_NW BOM_ROCI BOM_POCI BOM_EYE BOM_POS_METHOD BOM_PRES_METHOD NADI_LAT NADI_LON NADI_CAT NADI_WIND NADI_PRES WELLINGTON_LAT WELLINGTON_LON WELLINGTON_WIND WELLINGTON_PRES DS824_LAT DS824_LON DS824_STAGE DS824_WIND DS824_PRES TD9636_LAT TD9636_LON TD9636_STAGE TD9636_WIND TD9636_PRES TD9635_LAT TD9635_LON TD9635_WIND TD9635_PRES TD9635_ROCI NEUMANN_LAT NEUMANN_LON NEUMANN_CLASS NEUMANN_WIND NEUMANN_PRES MLC_LAT MLC_LON MLC_CLASS MLC_WIND MLC_PRES USA_GUST BOM_GUST BOM_GUST_PER REUNION_GUST REUNION_GUST_PER USA_SEAHGT USA_SEARAD_NE USA_SEARAD_SE USA_SEARAD_SW USA_SEARAD_NW STORM_SPEED STORM_DIR
1864246N17315 1864 16 NA NA NOT_NAMED 1864-09-02 00:00:00 TS 17.3000 -44.8000 main 1599 1565 _____________O -1 17.3000 -44.8000 TD 25 13 275
1864246N17315 1864 16 NA NA NOT_NAMED 1864-09-02 03:00:00 TS 17.3508 -45.4749 main 1569 1548 _____________P -1 17.3508 -45.4749 TD 27 11 275
1864246N17315 1864 16 NA NA NOT_NAMED 1864-09-02 06:00:00 TS 17.4000 -45.9000 main 1548 1543 _____________O -1 17.4000 -45.9000 TD 30 5 282
1864246N17315 1864 16 NA NA NOT_NAMED 1864-09-02 09:00:00 TS 17.4495 -45.9501 main 1543 1543 _____________P -1 17.4495 -45.9501 TD 32 1 317
1864246N17315 1864 16 NA NA NOT_NAMED 1864-09-02 12:00:00 TS 17.5000 -46.0000 main 1553 1533 _____________O -1 17.5000 -46.0000 TS 35 5 281
1864246N17315 1864 16 NA NA NOT_NAMED 1864-09-02 15:00:00 TS 17.5503 -46.4750 main 1538 1510 _____________P -1 17.5503 -46.4750 TS 35 11 275
1864246N17315 1864 16 NA NA NOT_NAMED 1864-09-02 18:00:00 TS 17.6000 -47.1000 main 1510 1489 _____________O -1 17.6000 -47.1000 TS 35 11 275
1864246N17315 1864 16 NA NA NOT_NAMED 1864-09-02 21:00:00 TS 17.6573 -47.6500 main 1499 1473 _____________P -1 17.6573 -47.6500 TS 35 11 275
1864246N17315 1864 16 NA NA NOT_NAMED 1864-09-03 00:00:00 TS 17.7000 -48.2000 main 1473 1450 _____________O -1 17.7000 -48.2000 TS 35 10 272
1864246N17315 1864 16 NA NA NOT_NAMED 1864-09-03 03:00:00 TS 17.6998 -48.7501 main 1445 1424 _____________P -1 17.6998 -48.7501 TS 35 10 270
1864246N17315 1864 16 NA NA NOT_NAMED 1864-09-03 06:00:00 TS 17.7000 -49.3000 main 1424 1405 _____________O -1 17.7000 -49.3000 TS 35 10 272
1864246N17315 1864 16 NA NA NOT_NAMED 1864-09-03 09:00:00 TS 17.7423 -49.8500 main 1405 1391 _____________P -1 17.7423 -49.8500 TS 35 11 275
1864246N17315 1864 16 NA NA NOT_NAMED 1864-09-03 12:00:00 TS 17.8000 -50.4000 main 1391 1347 _____________O -1 17.8000 -50.4000 TS 35 11 276
1864246N17315 1864 16 NA NA NOT_NAMED 1864-09-03 15:00:00 TS 17.8498 -50.9500 main 1338 1302 _____________P -1 17.8498 -50.9500 TS 35 11 275
1864246N17315 1864 16 NA NA NOT_NAMED 1864-09-03 18:00:00 TS 17.9000 -51.5000 main 1302 1260 _____________O -1 17.9000 -51.5000 TS 35 11 275
1864246N17315 1864 16 NA NA NOT_NAMED 1864-09-03 21:00:00 TS 17.9498 -52.0500 main 1252 1219 _____________P -1 17.9498 -52.0500 TS 35 11 275
1864246N17315 1864 16 NA NA NOT_NAMED 1864-09-04 00:00:00 TS 18.0000 -52.6000 main 1219 1179 _____________O -1 18.0000 -52.6000 TS 35 11 276
1864246N17315 1864 16 NA NA NOT_NAMED 1864-09-04 03:00:00 TS 18.0573 -53.1500 main 1187 1141 _____________P -1 18.0573 -53.1500 TS 35 11 275
1864246N17315 1864 16 NA NA NOT_NAMED 1864-09-04 06:00:00 TS 18.1000 -53.7000 main 1141 1105 _____________O -1 18.1000 -53.7000 TS 35 10 272
1864246N17315 1864 16 NA NA NOT_NAMED 1864-09-04 09:00:00 TS 18.0998 -54.2501 main 1098 1063 _____________P -1 18.0998 -54.2501 TS 35 10 270
1864246N17315 1864 16 NA NA NOT_NAMED 1864-09-04 12:00:00 TS 18.1000 -54.8000 main 1063 1030 _____________O -1 18.1000 -54.8000 TS 35 10 272
1864246N17315 1864 16 NA NA NOT_NAMED 1864-09-04 15:00:00 TS 18.1423 -55.3500 main 1030 1003 _____________P -1 18.1423 -55.3500 TS 35 11 275
1864246N17315 1864 16 NA NA NOT_NAMED 1864-09-04 18:00:00 TS 18.2000 -55.9000 main 1003 971 _____________O -1 18.2000 -55.9000 TS 35 11 276
1864246N17315 1864 16 NA NA NOT_NAMED 1864-09-04 21:00:00 TS 18.2499 -56.4575 main 960 907 _____________P -1 18.2499 -56.4575 TS 35 11 275
1864246N17315 1864 16 NA NA NOT_NAMED 1864-09-05 00:00:00 TS 18.3000 -57.0000 main 907 854 _____________O -1 18.3000 -57.0000 TS 35 10 276
1864246N17315 1864 16 NA NA NOT_NAMED 1864-09-05 03:00:00 TS 18.3498 -57.5075 main 854 801 _____________P -1 18.3498 -57.5075 TS 35 10 276
1864246N17315 1864 16 NA NA NOT_NAMED 1864-09-05 06:00:00 TS 18.4000 -58.0000 main 801 749 _____________O -1 18.4000 -58.0000 TS 35 9 276
1864246N17315 1864 16 NA NA NOT_NAMED 1864-09-05 09:00:00 TS 18.4499 -58.5000 main 749 696 _____________P -1 18.4499 -58.5000 TS 35 10 276
1864246N17315 1864 16 NA NA NOT_NAMED 1864-09-05 12:00:00 TS 18.5000 -59.0000 main 696 643 _____________O -1 18.5000 -59.0000 TS 35 10 276
1864246N17315 1864 16 NA NA NOT_NAMED 1864-09-05 15:00:00 TS 18.5574 -59.5000 main 643 590 _____________P -1 18.5574 -59.5000 TS 35 10 276
1864246N17315 1864 16 NA NA NOT_NAMED 1864-09-05 18:00:00 TS 18.6000 -60.0000 main 590 538 _____________O -1 18.6000 -60.0000 TS 35 9 273
1864246N17315 1864 16 NA NA NOT_NAMED 1864-09-05 21:00:00 TS 18.5999 -60.5001 main 538 485 _____________P -1 18.5999 -60.5001 TS 35 9 270
1864246N17315 1864 16 NA NA NOT_NAMED 1864-09-06 00:00:00 TS 18.6000 -61.0000 main 485 432 _____________O -1 18.6000 -61.0000 TS 35 9 273
1864246N17315 1864 16 NA NA NOT_NAMED 1864-09-06 03:00:00 TS 18.6424 -61.5000 main 432 381 _____________P -1 18.6424 -61.5000 TS 35 10 276
1864246N17315 1864 16 NA NA NOT_NAMED 1864-09-06 06:00:00 TS 18.7000 -62.0000 main 381 328 _____________O -1 18.7000 -62.0000 TS 35 9 276
1864246N17315 1864 16 NA NA NOT_NAMED 1864-09-06 09:00:00 TS 18.7422 -62.4851 main 328 277 _____________P -1 18.7422 -62.4851 TS 35 10 276
1864246N17315 1864 16 NA CS NOT_NAMED 1864-09-06 12:00:00 TS 18.8000 -63.0000 main 277 228 _____________O -1 18.8000 -63.0000 TS 35 10 279
1864246N17315 1864 16 NA CS NOT_NAMED 1864-09-06 15:00:00 TS 18.8999 -63.5774 main 218 162 _____________P -1 18.8999 -63.5774 TS 35 12 280
1864246N17315 1864 16 NA NA NOT_NAMED 1864-09-06 18:00:00 TS 19.0000 -64.2000 main 162 107 _____________O -1 19.0000 -64.2000 TS 35 12 277
1864246N17315 1864 16 NA NA NOT_NAMED 1864-09-06 21:00:00 TS 19.0498 -64.8352 main 107 79 _____________P -1 19.0498 -64.8352 TS 35 12 275
1864246N17315 1864 16 NA NA NOT_NAMED 1864-09-07 00:00:00 TS 19.1000 -65.5000 main 79 78 _____________O -1 19.1000 -65.5000 TS 35 13 277
1864246N17315 1864 16 NA NA NOT_NAMED 1864-09-07 03:00:00 TS 19.1998 -66.1924 main 89 89 _____________P -1 19.1998 -66.1924 TS 37 13 279
1864246N17315 1864 16 NA NA NOT_NAMED 1864-09-07 06:00:00 TS 19.3000 -66.9000 main 100 100 _____________O -1 19.3000 -66.9000 TS 40 13 276
1864246N17315 1864 16 NA NA NOT_NAMED 1864-09-07 09:00:00 TS 19.3497 -67.6002 main 105 74 _____________P -1 19.3497 -67.6002 TS 42 13 274
1864246N17315 1864 16 NA NA NOT_NAMED 1864-09-07 12:00:00 TS 19.4000 -68.3000 main 74 38 _____________O -1 19.4000 -68.3000 TS 45 13 276
1864246N17315 1864 16 NA NA NOT_NAMED 1864-09-07 15:00:00 TS 19.4997 -68.9999 main 38 22 _____________P -1 19.4997 -68.9999 TS 45 13 279
1864246N17315 1864 16 NA NA NOT_NAMED 1864-09-07 18:00:00 TS 19.6000 -69.7000 main 23 0 _____________O -1 19.6000 -69.7000 TS 45 13 276
1864246N17315 1864 16 NA NA NOT_NAMED 1864-09-07 21:00:00 TS 19.6497 -70.4002 main 0 0 _____________P -1 19.6497 -70.4002 TS 45 13 274
1864246N17315 1864 16 NA NA NOT_NAMED 1864-09-08 00:00:00 TS 19.7000 -71.1000 main 0 0 _____________O -1 19.7000 -71.1000 TS 45 14 276
1864246N17315 1864 16 NA NA NOT_NAMED 1864-09-08 03:00:00 TS 19.7925 -71.8299 main 0 0 _____________P -1 19.7925 -71.8299 TS 45 13 279
1864246N17315 1864 16 NA NA NOT_NAMED 1864-09-08 06:00:00 TS 19.9000 -72.5000 main 10 0 _____________O -1 19.9000 -72.5000 TS 45 12 280
1864246N17315 1864 16 NA NA NOT_NAMED 1864-09-08 09:00:00 TS 19.9999 -73.0900 main 11 11 _____________P -1 19.9999 -73.0900 TS 40 10 282
1864246N17315 1864 16 NA NA NOT_NAMED 1864-09-08 12:00:00 TS 20.1000 -73.5000 main 35 35 _____________O -1 20.1000 -73.5000 TS 35 6 288
1864246N17315 1864 16 NA NA NOT_NAMED 1864-09-08 15:00:00 TS 20.1847 -73.6900 main 41 41 _____________P -1 20.1847 -73.6900 TS 32 3 316
1864246N17315 1864 16 NA NA NOT_NAMED 1864-09-08 18:00:00 TS 20.3000 -73.7000 main 43 43 _____________O -1 20.3000 -73.7000 TD 30 3 12
1864246N17315 1864 16 NA NA NOT_NAMED 1864-09-08 21:00:00 TS 20.4475 -73.6300 main 55 24 _____________P -1 20.4475 -73.6300 TD 27 4 25
1864246N17315 1864 16 NA NA NOT_NAMED 1864-09-09 00:00:00 TS 20.7000 -73.5000 main 24 0 _____________O -1 20.7000 -73.5000 TD 25 7 17
1864246N17315 1864 16 NA NA NOT_NAMED 1864-09-09 03:00:00 TS 21.1125 -73.4074 main 0 0 _____________P -1 21.1125 -73.4074 TD 25 9 12
1864246N17315 1864 16 NA NA NOT_NAMED 1864-09-09 06:00:00 TS 21.6000 -73.3000 main 45 45 _____________O -1 21.6000 -73.3000 TD 25 10 13
1864246N17315 1864 16 NA NA NOT_NAMED 1864-09-09 09:00:00 TS 22.0725 -73.1724 main 100 100 _____________P -1 22.0725 -73.1724 TD 25 9 17
1864246N17315 1864 16 NA NA NOT_NAMED 1864-09-09 12:00:00 TS 22.5000 -73.0000 main 145 145 _____________O -1 22.5000 -73.0000 TD 25 8 26
1864246N17315 1864 16 NA NA NOT_NAMED 1864-09-09 15:00:00 TS 22.8225 -72.7724 main 180 180 _____________P -1 22.8225 -72.7724 TD 25 8 38
1864246N17315 1864 16 NA NA NOT_NAMED 1864-09-09 18:00:00 TS 23.1000 -72.5000 main 218 218 _____________O -1 23.1000 -72.5000 TD 25 8 42
1864246N17315 1864 16 NA NA NOT_NAMED 1864-09-09 21:00:00 TS 23.4000 -72.2074 main 259 259 _____________P -1 23.4000 -72.2074 TD 25 8 43
1864246N17315 1864 16 NA NA NOT_NAMED 1864-09-10 00:00:00 TS 23.7000 -71.9000 main 301 301 _____________O -1 23.7000 -71.9000 TD 25 8 42
1864246N17315 1864 16 NA NA NOT_NAMED 1864-09-10 03:00:00 TS 24.0074 -71.6074 main 344 344 _____________P -1 24.0074 -71.6074 TD 25 8 42
1864246N17315 1864 16 NA NA NOT_NAMED 1864-09-10 06:00:00 TS 24.3000 -71.3000 main 387 387 _____________O -1 24.3000 -71.3000 TD 25 8 49
1864246N17315 1864 16 NA NA NOT_NAMED 1864-09-10 09:00:00 TS 24.5501 -70.9275 main 436 436 _____________P -1 24.5501 -70.9275 TD 22 8 52
1864246N17315 1864 16 NA NA NOT_NAMED 1864-09-10 12:00:00 DS 24.8000 -70.6000 main 471 471 _____________O -1 24.8000 -70.6000 LO 20 7 40
1864246N17315 1864 16 NA NA NOT_NAMED 1864-09-10 15:00:00 DS 25.0999 -70.4198 main 510 510 _____________P -1 25.0999 -70.4198 LO 20 7 24
1864246N17315 1864 16 NA NA NOT_NAMED 1864-09-10 18:00:00 DS 25.4000 -70.3000 main 544 544 _____________O -1 25.4000 -70.3000 LO 20 6 24
1864246N17315 1864 16 NA NA NOT_NAMED 1864-09-10 21:00:00 DS 25.6500 -70.1499 main 573 573 _____________P -1 25.6500 -70.1499 LO 20 6 29
1864246N17315 1864 16 NA NA NOT_NAMED 1864-09-11 00:00:00 DS 25.9000 -70.0000 main 607 607 _____________O -1 25.9000 -70.0000 LO 20 6 27
1864246N17315 1864 16 NA NA NOT_NAMED 1864-09-11 03:00:00 DS 26.2000 -69.8425 main 646 646 _____________P -1 26.2000 -69.8425 LO 20 7 24
1864246N17315 1864 16 NA NA NOT_NAMED 1864-09-11 06:00:00 DS 26.5000 -69.7000 main 680 680 _____________O -1 26.5000 -69.7000 LO 20 6 21
1864246N17315 1864 16 NA NA NOT_NAMED 1864-09-11 09:00:00 DS 26.7424 -69.6146 main 704 704 _____________P -1 26.7424 -69.6146 LO 20 5 20
1864246N17315 1864 16 NA NA NOT_NAMED 1864-09-11 12:00:00 DS 27.0000 -69.5000 main 738 738 _____________O -1 27.0000 -69.5000 LO 20 7 27
1864246N17315 1864 16 NA NA NOT_NAMED 1864-09-11 15:00:00 DS 27.3426 -69.2727 main 777 777 _____________P -1 27.3426 -69.2727 LO 20 8 32
1864246N17315 1864 16 NA NA NOT_NAMED 1864-09-11 18:00:00 DS 27.7000 -69.0000 main 831 831 _____________O -1 27.7000 -69.0000 LO 20 8 35
1864246N17315 1864 16 NA NA NOT_NAMED 1864-09-11 21:00:00 DS 28.0075 -68.7498 main 875 875 _____________P -1 28.0075 -68.7498 LO 20 7 36
1864246N17315 1864 16 NA NA NOT_NAMED 1864-09-12 00:00:00 DS 28.3000 -68.5000 main 913 913 _____________O -1 28.3000 -68.5000 LO 20 7 37
1864246N17315 1864 16 NA NA NOT_NAMED 1864-09-12 03:00:00 DS 28.6000 -68.2499 main 957 957 _____________P -1 28.6000 -68.2499 LO 20 7 36
1864246N17315 1864 16 NA NA NOT_NAMED 1864-09-12 06:00:00 DS 28.9000 -68.0000 main 996 996 _____________O -1 28.9000 -68.0000 LO 20 7 37
1864246N17315 1864 16 NA NA NOT_NAMED 1864-09-12 09:00:00 DS 29.1850 -67.7497 main 1028 1021 _____________P -1 29.1850 -67.7497 LO 20 7 36
1864246N17315 1864 16 NA NA NOT_NAMED 1864-09-12 12:00:00 DS 29.5000 -67.5000 main 1021 1007 _____________O -1 29.5000 -67.5000 LO 20 8 32
1864246N17315 1864 16 NA NA NOT_NAMED 1864-09-12 15:00:00 DS 29.8925 -67.2500 main 1015 999 _____________P -1 29.8925 -67.2500 LO 20 9 28
1864246N17315 1864 16 NA NA NOT_NAMED 1864-09-12 18:00:00 DS 30.3000 -67.0000 main 999 992 _____________O -1 30.3000 -67.0000 LO 20 9 30
1864246N17315 1864 16 NA NA NOT_NAMED 1864-09-12 21:00:00 DS 30.6500 -66.7497 main 1001 987 _____________P -1 30.6500 -66.7497 LO 20 8 32
1864246N17315 1864 16 NA NA NOT_NAMED 1864-09-13 00:00:00 DS 31.0000 -66.5000 main 990 981 _____________O -1 31.0000 -66.5000 LO 20 9 30
1864246N17315 1864 16 NA NA NOT_NAMED 1864-09-13 03:00:00 DS 31.4000 -66.2499 main 989 977 _____________P -1 31.4000 -66.2499 LO 20 9 28
1864246N17315 1864 16 NA NA NOT_NAMED 1864-09-13 06:00:00 DS 31.8000 -66.0000 main 982 976 _____________O -1 31.8000 -66.0000 LO 20 9 29
1864246N17315 1864 16 NA NA NOT_NAMED 1864-09-13 09:00:00 DS 32.1626 -65.7503 main 977 977 _____________P -1 32.1626 -65.7503 LO 20 8 31
1864246N17315 1864 16 NA NA NOT_NAMED 1864-09-13 12:00:00 DS 32.5000 -65.5000 main 988 _____________O -1 32.5000 -65.5000 LO 20 8 32

About IBTrACS Database

This database is a web-friendly format of International Best Track Archive for Climate Stewardship (IBTrACS), a global best track data archive curated by NOAA dating back to 1842.

Updated: 2021-11-26